sensor_id;sensor_type;location;lat;lon;timestamp;temperature;humidity
10129;DHT22;5104;50.720;7.044;2023-03-24T00:02:09;13.70;1.00
10129;DHT22;5104;50.720;7.044;2023-03-24T00:04:38;13.60;1.00
10129;DHT22;5104;50.720;7.044;2023-03-24T00:07:07;13.60;1.00
10129;DHT22;5104;50.720;7.044;2023-03-24T00:09:39;13.60;1.00
10129;DHT22;5104;50.720;7.044;2023-03-24T00:12:06;13.60;1.00
10129;DHT22;5104;50.720;7.044;2023-03-24T00:14:34;13.60;30.90
10129;DHT22;5104;50.720;7.044;2023-03-24T00:17:03;13.60;76.20
10129;DHT22;5104;50.720;7.044;2023-03-24T00:19:30;13.60;1.00
10129;DHT22;5104;50.720;7.044;2023-03-24T00:21:58;13.60;99.90
10129;DHT22;5104;50.720;7.044;2023-03-24T00:24:25;13.60;99.90
10129;DHT22;5104;50.720;7.044;2023-03-24T00:26:52;13.70;99.90
10129;DHT22;5104;50.720;7.044;2023-03-24T00:29:22;13.70;99.90
10129;DHT22;5104;50.720;7.044;2023-03-24T00:31:51;13.60;99.90
10129;DHT22;5104;50.720;7.044;2023-03-24T00:34:19;13.60;99.90
10129;DHT22;5104;50.720;7.044;2023-03-24T00:36:47;13.60;99.90
10129;DHT22;5104;50.720;7.044;2023-03-24T00:39:14;13.60;99.90
10129;DHT22;5104;50.720;7.044;2023-03-24T00:41:42;13.60;99.90
10129;DHT22;5104;50.720;7.044;2023-03-24T00:44:10;13.60;1.00
10129;DHT22;5104;50.720;7.044;2023-03-24T00:46:43;13.70;1.00
10129;DHT22;5104;50.720;7.044;2023-03-24T00:49:23;13.60;1.00
10129;DHT22;5104;50.720;7.044;2023-03-24T00:52:07;13.70;1.00
10129;DHT22;5104;50.720;7.044;2023-03-24T00:54:36;13.70;1.00
10129;DHT22;5104;50.720;7.044;2023-03-24T00:57:03;13.70;1.00
10129;DHT22;5104;50.720;7.044;2023-03-24T00:59:30;13.70;1.00
10129;DHT22;5104;50.720;7.044;2023-03-24T01:02:02;13.70;1.00
10129;DHT22;5104;50.720;7.044;2023-03-24T01:04:31;13.70;1.00
10129;DHT22;5104;50.720;7.044;2023-03-24T01:07:00;13.70;1.00
10129;DHT22;5104;50.720;7.044;2023-03-24T01:09:27;13.70;60.60
10129;DHT22;5104;50.720;7.044;2023-03-24T01:11:54;13.70;1.00
10129;DHT22;5104;50.720;7.044;2023-03-24T01:14:22;13.80;1.00
10129;DHT22;5104;50.720;7.044;2023-03-24T01:16:49;13.80;1.00
10129;DHT22;5104;50.720;7.044;2023-03-24T01:19:17;13.70;1.00
10129;DHT22;5104;50.720;7.044;2023-03-24T01:21:46;13.70;1.00
10129;DHT22;5104;50.720;7.044;2023-03-24T01:24:15;13.70;1.00
10129;DHT22;5104;50.720;7.044;2023-03-24T01:26:43;13.70;99.90
10129;DHT22;5104;50.720;7.044;2023-03-24T01:29:10;13.60;1.00
10129;DHT22;5104;50.720;7.044;2023-03-24T01:31:37;13.60;99.90
10129;DHT22;5104;50.720;7.044;2023-03-24T01:34:04;13.60;1.00
10129;DHT22;5104;50.720;7.044;2023-03-24T01:36:31;13.60;1.00
10129;DHT22;5104;50.720;7.044;2023-03-24T01:39:00;13.70;1.00
10129;DHT22;5104;50.720;7.044;2023-03-24T01:41:32;13.70;1.00
10129;DHT22;5104;50.720;7.044;2023-03-24T01:43:59;13.70;1.00
10129;DHT22;5104;50.720;7.044;2023-03-24T01:46:26;13.70;1.00
10129;DHT22;5104;50.720;7.044;2023-03-24T01:48:59;13.70;1.00
10129;DHT22;5104;50.720;7.044;2023-03-24T01:51:28;13.70;1.00
10129;DHT22;5104;50.720;7.044;2023-03-24T01:54:02;13.70;1.00
10129;DHT22;5104;50.720;7.044;2023-03-24T01:56:34;13.70;1.00
10129;DHT22;5104;50.720;7.044;2023-03-24T01:59:05;13.70;1.00
10129;DHT22;5104;50.720;7.044;2023-03-24T02:01:33;13.80;1.00
10129;DHT22;5104;50.720;7.044;2023-03-24T02:04:04;13.80;1.00
10129;DHT22;5104;50.720;7.044;2023-03-24T02:06:32;13.80;1.00
10129;DHT22;5104;50.720;7.044;2023-03-24T02:09:02;13.80;1.00
10129;DHT22;5104;50.720;7.044;2023-03-24T02:11:32;13.80;99.90
10129;DHT22;5104;50.720;7.044;2023-03-24T02:13:59;13.90;1.00
10129;DHT22;5104;50.720;7.044;2023-03-24T02:16:41;13.80;1.00
10129;DHT22;5104;50.720;7.044;2023-03-24T02:19:40;13.90;1.00
10129;DHT22;5104;50.720;7.044;2023-03-24T02:22:44;13.80;1.00
10129;DHT22;5104;50.720;7.044;2023-03-24T02:28:34;13.80;1.00
10129;DHT22;5104;50.720;7.044;2023-03-24T02:31:28;13.90;1.00
10129;DHT22;5104;50.720;7.044;2023-03-24T02:34:28;13.90;1.00
10129;DHT22;5104;50.720;7.044;2023-03-24T02:40:16;13.90;99.90
10129;DHT22;5104;50.720;7.044;2023-03-24T02:42:53;14.00;99.90
10129;DHT22;5104;50.720;7.044;2023-03-24T02:45:29;14.00;99.90
10129;DHT22;5104;50.720;7.044;2023-03-24T02:48:11;14.00;99.90
10129;DHT22;5104;50.720;7.044;2023-03-24T02:50:46;14.00;99.90
10129;DHT22;5104;50.720;7.044;2023-03-24T02:53:20;14.00;99.90
10129;DHT22;5104;50.720;7.044;2023-03-24T02:55:53;14.10;99.90
10129;DHT22;5104;50.720;7.044;2023-03-24T03:01:04;14.00;99.90
10129;DHT22;5104;50.720;7.044;2023-03-24T03:03:37;14.10;99.90
10129;DHT22;5104;50.720;7.044;2023-03-24T03:06:10;14.10;1.00
10129;DHT22;5104;50.720;7.044;2023-03-24T03:08:40;14.00;1.00
10129;DHT22;5104;50.720;7.044;2023-03-24T03:11:12;14.10;1.00
10129;DHT22;5104;50.720;7.044;2023-03-24T03:13:44;14.10;1.00
10129;DHT22;5104;50.720;7.044;2023-03-24T03:16:18;14.10;1.00
10129;DHT22;5104;50.720;7.044;2023-03-24T03:18:49;14.10;1.00
10129;DHT22;5104;50.720;7.044;2023-03-24T03:21:20;14.10;1.00
10129;DHT22;5104;50.720;7.044;2023-03-24T03:23:52;14.00;1.00
10129;DHT22;5104;50.720;7.044;2023-03-24T03:26:23;14.10;1.00
10129;DHT22;5104;50.720;7.044;2023-03-24T03:28:55;14.10;1.00
10129;DHT22;5104;50.720;7.044;2023-03-24T03:31:28;14.10;1.00
10129;DHT22;5104;50.720;7.044;2023-03-24T03:34:06;14.10;1.00
10129;DHT22;5104;50.720;7.044;2023-03-24T03:36:40;14.10;1.00
10129;DHT22;5104;50.720;7.044;2023-03-24T03:39:14;14.10;1.00
10129;DHT22;5104;50.720;7.044;2023-03-24T03:41:44;14.20;1.00
10129;DHT22;5104;50.720;7.044;2023-03-24T03:44:11;14.10;1.00
10129;DHT22;5104;50.720;7.044;2023-03-24T03:46:38;14.10;1.00
10129;DHT22;5104;50.720;7.044;2023-03-24T03:49:06;14.10;1.00
10129;DHT22;5104;50.720;7.044;2023-03-24T03:51:34;14.10;1.00
10129;DHT22;5104;50.720;7.044;2023-03-24T03:54:04;14.10;1.00
10129;DHT22;5104;50.720;7.044;2023-03-24T03:56:34;14.00;1.00
10129;DHT22;5104;50.720;7.044;2023-03-24T03:59:03;14.10;1.00
10129;DHT22;5104;50.720;7.044;2023-03-24T04:01:32;14.10;1.00
10129;DHT22;5104;50.720;7.044;2023-03-24T04:04:16;14.10;1.00
10129;DHT22;5104;50.720;7.044;2023-03-24T04:06:54;14.10;1.00
10129;DHT22;5104;50.720;7.044;2023-03-24T04:09:35;14.10;99.90
10129;DHT22;5104;50.720;7.044;2023-03-24T04:12:20;14.20;99.90
10129;DHT22;5104;50.720;7.044;2023-03-24T04:15:11;14.20;1.00
10129;DHT22;5104;50.720;7.044;2023-03-24T04:18:05;14.20;1.00
10129;DHT22;5104;50.720;7.044;2023-03-24T04:20:42;14.20;1.00
10129;DHT22;5104;50.720;7.044;2023-03-24T04:23:23;14.20;1.00
10129;DHT22;5104;50.720;7.044;2023-03-24T04:26:01;14.20;1.00
10129;DHT22;5104;50.720;7.044;2023-03-24T04:28:35;14.20;1.00
10129;DHT22;5104;50.720;7.044;2023-03-24T04:31:11;14.20;1.00
10129;DHT22;5104;50.720;7.044;2023-03-24T04:33:47;14.20;1.00
10129;DHT22;5104;50.720;7.044;2023-03-24T04:36:20;14.20;1.00
10129;DHT22;5104;50.720;7.044;2023-03-24T04:38:52;14.20;1.00
10129;DHT22;5104;50.720;7.044;2023-03-24T04:41:23;14.20;1.00
10129;DHT22;5104;50.720;7.044;2023-03-24T04:43:52;14.20;99.90
10129;DHT22;5104;50.720;7.044;2023-03-24T04:46:22;14.20;99.90
10129;DHT22;5104;50.720;7.044;2023-03-24T04:48:50;14.30;93.40
10129;DHT22;5104;50.720;7.044;2023-03-24T04:51:18;14.30;53.80
10129;DHT22;5104;50.720;7.044;2023-03-24T04:53:46;14.30;1.00
10129;DHT22;5104;50.720;7.044;2023-03-24T04:56:29;14.30;1.00
10129;DHT22;5104;50.720;7.044;2023-03-24T04:58:56;14.30;1.00
10129;DHT22;5104;50.720;7.044;2023-03-24T05:01:26;14.20;1.00
10129;DHT22;5104;50.720;7.044;2023-03-24T05:03:55;14.20;1.00
10129;DHT22;5104;50.720;7.044;2023-03-24T05:06:22;14.20;1.00
10129;DHT22;5104;50.720;7.044;2023-03-24T05:08:49;14.20;1.00
10129;DHT22;5104;50.720;7.044;2023-03-24T05:11:17;14.30;1.00
10129;DHT22;5104;50.720;7.044;2023-03-24T05:13:44;14.30;99.90
10129;DHT22;5104;50.720;7.044;2023-03-24T05:16:11;14.30;99.90
10129;DHT22;5104;50.720;7.044;2023-03-24T05:18:40;14.30;99.90
10129;DHT22;5104;50.720;7.044;2023-03-24T05:21:07;14.30;99.90
10129;DHT22;5104;50.720;7.044;2023-03-24T05:23:34;14.40;99.90
10129;DHT22;5104;50.720;7.044;2023-03-24T05:26:01;14.40;1.00
10129;DHT22;5104;50.720;7.044;2023-03-24T05:28:28;14.50;29.70
10129;DHT22;5104;50.720;7.044;2023-03-24T05:30:58;14.40;1.00
10129;DHT22;5104;50.720;7.044;2023-03-24T05:33:26;14.20;1.00
10129;DHT22;5104;50.720;7.044;2023-03-24T05:35:54;14.00;99.90
10129;DHT22;5104;50.720;7.044;2023-03-24T05:38:22;13.90;99.90
10129;DHT22;5104;50.720;7.044;2023-03-24T05:40:49;13.70;79.10
10129;DHT22;5104;50.720;7.044;2023-03-24T05:43:15;13.60;82.20
10129;DHT22;5104;50.720;7.044;2023-03-24T05:45:42;13.40;1.00
10129;DHT22;5104;50.720;7.044;2023-03-24T05:48:09;13.30;1.00
10129;DHT22;5104;50.720;7.044;2023-03-24T05:50:36;13.30;99.90
10129;DHT22;5104;50.720;7.044;2023-03-24T05:53:04;13.30;99.90
10129;DHT22;5104;50.720;7.044;2023-03-24T05:55:32;13.30;1.00
10129;DHT22;5104;50.720;7.044;2023-03-24T05:57:59;13.30;1.00
10129;DHT22;5104;50.720;7.044;2023-03-24T06:00:28;13.30;1.00
10129;DHT22;5104;50.720;7.044;2023-03-24T06:02:56;13.40;1.00
10129;DHT22;5104;50.720;7.044;2023-03-24T06:05:24;13.40;1.00
10129;DHT22;5104;50.720;7.044;2023-03-24T06:07:51;13.50;1.00
10129;DHT22;5104;50.720;7.044;2023-03-24T06:10:25;13.50;1.00
10129;DHT22;5104;50.720;7.044;2023-03-24T06:12:53;13.50;1.00
10129;DHT22;5104;50.720;7.044;2023-03-24T06:15:20;13.50;1.00
10129;DHT22;5104;50.720;7.044;2023-03-24T06:17:48;13.50;1.00
10129;DHT22;5104;50.720;7.044;2023-03-24T06:20:19;13.50;1.00
10129;DHT22;5104;50.720;7.044;2023-03-24T06:22:47;13.50;1.00
10129;DHT22;5104;50.720;7.044;2023-03-24T06:25:15;13.60;1.00
10129;DHT22;5104;50.720;7.044;2023-03-24T06:27:46;13.50;1.00
10129;DHT22;5104;50.720;7.044;2023-03-24T06:30:16;13.50;99.90
10129;DHT22;5104;50.720;7.044;2023-03-24T06:32:43;13.50;99.90
10129;DHT22;5104;50.720;7.044;2023-03-24T06:35:13;13.50;99.90
10129;DHT22;5104;50.720;7.044;2023-03-24T06:37:41;13.50;99.90
10129;DHT22;5104;50.720;7.044;2023-03-24T06:40:10;13.50;99.90
10129;DHT22;5104;50.720;7.044;2023-03-24T06:42:40;13.40;99.90
10129;DHT22;5104;50.720;7.044;2023-03-24T06:45:09;13.40;99.90
10129;DHT22;5104;50.720;7.044;2023-03-24T06:47:36;13.40;1.00
10129;DHT22;5104;50.720;7.044;2023-03-24T06:50:04;13.40;1.00
10129;DHT22;5104;50.720;7.044;2023-03-24T06:52:32;13.40;1.00
10129;DHT22;5104;50.720;7.044;2023-03-24T06:55:00;13.40;1.00
10129;DHT22;5104;50.720;7.044;2023-03-24T06:57:27;13.40;1.00
10129;DHT22;5104;50.720;7.044;2023-03-24T06:59:54;13.50;1.00
10129;DHT22;5104;50.720;7.044;2023-03-24T07:02:22;13.60;1.00
10129;DHT22;5104;50.720;7.044;2023-03-24T07:04:49;13.60;1.00
10129;DHT22;5104;50.720;7.044;2023-03-24T07:07:18;13.60;1.00
10129;DHT22;5104;50.720;7.044;2023-03-24T07:09:47;13.60;1.00
10129;DHT22;5104;50.720;7.044;2023-03-24T07:12:14;13.50;99.90
10129;DHT22;5104;50.720;7.044;2023-03-24T07:14:44;13.40;99.90
10129;DHT22;5104;50.720;7.044;2023-03-24T07:17:11;13.30;99.90
10129;DHT22;5104;50.720;7.044;2023-03-24T07:19:39;13.30;99.90
10129;DHT22;5104;50.720;7.044;2023-03-24T07:22:06;13.20;99.90
10129;DHT22;5104;50.720;7.044;2023-03-24T07:24:34;13.20;99.90
10129;DHT22;5104;50.720;7.044;2023-03-24T07:27:01;13.10;99.90
10129;DHT22;5104;50.720;7.044;2023-03-24T07:29:29;13.00;99.90
10129;DHT22;5104;50.720;7.044;2023-03-24T07:31:56;13.00;99.90
10129;DHT22;5104;50.720;7.044;2023-03-24T07:34:25;13.10;99.90
10129;DHT22;5104;50.720;7.044;2023-03-24T07:36:53;13.00;1.00
10129;DHT22;5104;50.720;7.044;2023-03-24T07:39:21;12.90;1.00
10129;DHT22;5104;50.720;7.044;2023-03-24T07:41:48;12.90;1.00
10129;DHT22;5104;50.720;7.044;2023-03-24T07:44:15;12.90;1.00
10129;DHT22;5104;50.720;7.044;2023-03-24T07:46:42;12.80;1.00
10129;DHT22;5104;50.720;7.044;2023-03-24T07:49:08;12.80;1.00
10129;DHT22;5104;50.720;7.044;2023-03-24T07:51:36;12.90;1.00
10129;DHT22;5104;50.720;7.044;2023-03-24T07:54:04;12.90;1.00
10129;DHT22;5104;50.720;7.044;2023-03-24T07:56:31;13.00;1.00
10129;DHT22;5104;50.720;7.044;2023-03-24T07:58:58;13.10;1.00
10129;DHT22;5104;50.720;7.044;2023-03-24T08:01:24;13.10;1.00
10129;DHT22;5104;50.720;7.044;2023-03-24T08:03:52;13.10;1.00
10129;DHT22;5104;50.720;7.044;2023-03-24T08:06:21;13.00;1.00
10129;DHT22;5104;50.720;7.044;2023-03-24T08:08:48;13.00;1.00
10129;DHT22;5104;50.720;7.044;2023-03-24T08:11:17;13.00;1.00
10129;DHT22;5104;50.720;7.044;2023-03-24T08:13:44;13.00;1.00
10129;DHT22;5104;50.720;7.044;2023-03-24T08:16:11;13.00;1.00
10129;DHT22;5104;50.720;7.044;2023-03-24T08:18:38;13.10;1.00
10129;DHT22;5104;50.720;7.044;2023-03-24T08:21:05;13.20;1.00
10129;DHT22;5104;50.720;7.044;2023-03-24T08:23:32;13.20;1.00
10129;DHT22;5104;50.720;7.044;2023-03-24T08:26:01;13.30;1.00
10129;DHT22;5104;50.720;7.044;2023-03-24T08:28:29;13.40;99.90
10129;DHT22;5104;50.720;7.044;2023-03-24T08:30:56;13.50;99.90
10129;DHT22;5104;50.720;7.044;2023-03-24T08:33:23;13.40;99.90
10129;DHT22;5104;50.720;7.044;2023-03-24T08:35:50;13.50;99.90
10129;DHT22;5104;50.720;7.044;2023-03-24T08:38:22;13.60;36.90
10129;DHT22;5104;50.720;7.044;2023-03-24T08:40:56;13.80;1.00
10129;DHT22;5104;50.720;7.044;2023-03-24T08:43:27;13.90;1.00
10129;DHT22;5104;50.720;7.044;2023-03-24T08:45:55;14.10;1.00
10129;DHT22;5104;50.720;7.044;2023-03-24T08:48:23;14.20;1.00
10129;DHT22;5104;50.720;7.044;2023-03-24T08:50:50;14.00;1.00
10129;DHT22;5104;50.720;7.044;2023-03-24T08:53:18;13.90;1.00
10129;DHT22;5104;50.720;7.044;2023-03-24T08:55:45;13.90;1.00
10129;DHT22;5104;50.720;7.044;2023-03-24T08:58:13;14.00;1.00
10129;DHT22;5104;50.720;7.044;2023-03-24T09:00:41;14.10;1.00
10129;DHT22;5104;50.720;7.044;2023-03-24T09:03:12;14.00;1.00
10129;DHT22;5104;50.720;7.044;2023-03-24T09:05:42;14.20;1.00
10129;DHT22;5104;50.720;7.044;2023-03-24T09:08:10;14.20;1.00
10129;DHT22;5104;50.720;7.044;2023-03-24T09:10:38;14.40;1.00
10129;DHT22;5104;50.720;7.044;2023-03-24T09:13:05;14.50;1.00
10129;DHT22;5104;50.720;7.044;2023-03-24T09:15:33;14.50;1.00
10129;DHT22;5104;50.720;7.044;2023-03-24T09:18:00;14.40;1.00
10129;DHT22;5104;50.720;7.044;2023-03-24T09:20:29;14.20;1.00
10129;DHT22;5104;50.720;7.044;2023-03-24T09:22:56;14.20;1.00
10129;DHT22;5104;50.720;7.044;2023-03-24T09:25:23;14.40;1.00
10129;DHT22;5104;50.720;7.044;2023-03-24T09:27:50;14.50;1.00
10129;DHT22;5104;50.720;7.044;2023-03-24T09:30:17;14.40;1.00
10129;DHT22;5104;50.720;7.044;2023-03-24T09:32:45;14.50;99.90
10129;DHT22;5104;50.720;7.044;2023-03-24T09:35:12;14.40;99.90
10129;DHT22;5104;50.720;7.044;2023-03-24T09:37:42;14.60;99.90
10129;DHT22;5104;50.720;7.044;2023-03-24T09:40:16;14.70;99.90
10129;DHT22;5104;50.720;7.044;2023-03-24T09:42:50;14.80;99.90
10129;DHT22;5104;50.720;7.044;2023-03-24T09:45:20;14.90;99.90
10129;DHT22;5104;50.720;7.044;2023-03-24T09:47:51;15.00;99.90
10129;DHT22;5104;50.720;7.044;2023-03-24T09:50:22;15.10;99.90
10129;DHT22;5104;50.720;7.044;2023-03-24T09:52:55;15.40;99.90
10129;DHT22;5104;50.720;7.044;2023-03-24T09:55:25;15.40;99.90
10129;DHT22;5104;50.720;7.044;2023-03-24T09:57:56;15.30;99.90
10129;DHT22;5104;50.720;7.044;2023-03-24T10:00:26;15.20;99.90
10129;DHT22;5104;50.720;7.044;2023-03-24T10:02:58;15.40;99.90
10129;DHT22;5104;50.720;7.044;2023-03-24T10:05:28;15.60;99.90
10129;DHT22;5104;50.720;7.044;2023-03-24T10:08:06;15.80;99.90
10129;DHT22;5104;50.720;7.044;2023-03-24T10:10:41;16.00;99.90
10129;DHT22;5104;50.720;7.044;2023-03-24T10:13:16;16.10;99.90
10129;DHT22;5104;50.720;7.044;2023-03-24T10:15:51;16.00;99.90
10129;DHT22;5104;50.720;7.044;2023-03-24T10:18:29;16.00;37.80
10129;DHT22;5104;50.720;7.044;2023-03-24T10:21:01;16.00;5.10
10129;DHT22;5104;50.720;7.044;2023-03-24T10:23:38;16.00;1.00
10129;DHT22;5104;50.720;7.044;2023-03-24T10:26:20;15.90;1.00
10129;DHT22;5104;50.720;7.044;2023-03-24T10:28:52;15.90;1.00
10129;DHT22;5104;50.720;7.044;2023-03-24T10:31:28;15.90;1.00
10129;DHT22;5104;50.720;7.044;2023-03-24T10:33:56;15.80;1.00
10129;DHT22;5104;50.720;7.044;2023-03-24T10:36:23;15.80;1.00
10129;DHT22;5104;50.720;7.044;2023-03-24T10:38:53;15.80;1.00
10129;DHT22;5104;50.720;7.044;2023-03-24T10:41:23;15.80;1.00
10129;DHT22;5104;50.720;7.044;2023-03-24T10:43:54;15.80;1.00
10129;DHT22;5104;50.720;7.044;2023-03-24T10:46:24;15.90;1.00
10129;DHT22;5104;50.720;7.044;2023-03-24T10:48:53;16.00;1.00
10129;DHT22;5104;50.720;7.044;2023-03-24T10:51:24;16.00;1.00
10129;DHT22;5104;50.720;7.044;2023-03-24T10:54:09;16.00;1.00
10129;DHT22;5104;50.720;7.044;2023-03-24T10:56:38;16.20;1.00
10129;DHT22;5104;50.720;7.044;2023-03-24T10:59:18;16.30;1.00
10129;DHT22;5104;50.720;7.044;2023-03-24T11:01:46;16.30;1.00
10129;DHT22;5104;50.720;7.044;2023-03-24T11:04:14;16.40;1.00
10129;DHT22;5104;50.720;7.044;2023-03-24T11:06:54;16.50;1.00
10129;DHT22;5104;50.720;7.044;2023-03-24T11:09:25;16.80;1.00
10129;DHT22;5104;50.720;7.044;2023-03-24T11:11:52;16.60;1.00
10129;DHT22;5104;50.720;7.044;2023-03-24T11:14:24;16.70;1.00
10129;DHT22;5104;50.720;7.044;2023-03-24T11:16:51;16.70;1.00
10129;DHT22;5104;50.720;7.044;2023-03-24T11:19:20;16.60;1.00
10129;DHT22;5104;50.720;7.044;2023-03-24T11:21:49;16.60;1.00
10129;DHT22;5104;50.720;7.044;2023-03-24T11:24:18;16.70;1.00
10129;DHT22;5104;50.720;7.044;2023-03-24T11:26:52;17.00;1.00
10129;DHT22;5104;50.720;7.044;2023-03-24T11:29:22;17.20;1.00
10129;DHT22;5104;50.720;7.044;2023-03-24T11:31:53;17.40;1.00
10129;DHT22;5104;50.720;7.044;2023-03-24T11:34:24;17.70;1.00
10129;DHT22;5104;50.720;7.044;2023-03-24T11:36:59;17.60;1.00
10129;DHT22;5104;50.720;7.044;2023-03-24T11:39:29;17.50;1.00
10129;DHT22;5104;50.720;7.044;2023-03-24T11:42:13;17.70;1.00
10129;DHT22;5104;50.720;7.044;2023-03-24T11:44:47;17.90;1.00
10129;DHT22;5104;50.720;7.044;2023-03-24T11:47:22;17.70;1.00
10129;DHT22;5104;50.720;7.044;2023-03-24T11:49:56;17.80;1.00
10129;DHT22;5104;50.720;7.044;2023-03-24T11:52:28;18.00;1.00
10129;DHT22;5104;50.720;7.044;2023-03-24T11:54:57;18.20;1.00
10129;DHT22;5104;50.720;7.044;2023-03-24T11:57:39;18.40;1.00
10129;DHT22;5104;50.720;7.044;2023-03-24T12:00:14;18.20;1.00
10129;DHT22;5104;50.720;7.044;2023-03-24T12:02:58;18.20;1.00
10129;DHT22;5104;50.720;7.044;2023-03-24T12:05:31;18.20;1.00
10129;DHT22;5104;50.720;7.044;2023-03-24T12:08:16;18.40;1.00
10129;DHT22;5104;50.720;7.044;2023-03-24T12:10:54;18.30;1.00
10129;DHT22;5104;50.720;7.044;2023-03-24T12:13:32;18.30;1.00
10129;DHT22;5104;50.720;7.044;2023-03-24T12:16:12;18.60;1.00
10129;DHT22;5104;50.720;7.044;2023-03-24T12:18:57;18.50;1.00
10129;DHT22;5104;50.720;7.044;2023-03-24T12:21:48;18.10;1.00
10129;DHT22;5104;50.720;7.044;2023-03-24T12:24:26;18.20;1.00
10129;DHT22;5104;50.720;7.044;2023-03-24T12:26:57;17.70;1.00
10129;DHT22;5104;50.720;7.044;2023-03-24T12:29:50;17.50;1.00
10129;DHT22;5104;50.720;7.044;2023-03-24T12:32:39;17.50;1.00
10129;DHT22;5104;50.720;7.044;2023-03-24T12:35:23;17.30;1.00
10129;DHT22;5104;50.720;7.044;2023-03-24T12:38:02;17.30;1.00
10129;DHT22;5104;50.720;7.044;2023-03-24T12:40:53;17.40;1.00
10129;DHT22;5104;50.720;7.044;2023-03-24T12:43:30;17.60;1.00
10129;DHT22;5104;50.720;7.044;2023-03-24T12:46:11;17.70;1.00
10129;DHT22;5104;50.720;7.044;2023-03-24T12:49:09;18.00;1.00
10129;DHT22;5104;50.720;7.044;2023-03-24T12:51:44;18.50;1.00
10129;DHT22;5104;50.720;7.044;2023-03-24T12:54:22;18.10;1.00
10129;DHT22;5104;50.720;7.044;2023-03-24T12:56:55;18.10;1.00
10129;DHT22;5104;50.720;7.044;2023-03-24T12:59:29;18.20;1.00
10129;DHT22;5104;50.720;7.044;2023-03-24T13:02:03;18.20;1.00
10129;DHT22;5104;50.720;7.044;2023-03-24T13:04:38;18.20;1.00
10129;DHT22;5104;50.720;7.044;2023-03-24T13:07:07;18.20;1.00
10129;DHT22;5104;50.720;7.044;2023-03-24T13:09:41;18.00;1.00
10129;DHT22;5104;50.720;7.044;2023-03-24T13:12:12;17.70;1.00
10129;DHT22;5104;50.720;7.044;2023-03-24T13:14:52;17.40;1.00
10129;DHT22;5104;50.720;7.044;2023-03-24T13:17:25;17.20;1.00
10129;DHT22;5104;50.720;7.044;2023-03-24T13:19:54;16.90;1.00
10129;DHT22;5104;50.720;7.044;2023-03-24T13:22:24;16.90;1.00
10129;DHT22;5104;50.720;7.044;2023-03-24T13:24:53;16.80;1.00
10129;DHT22;5104;50.720;7.044;2023-03-24T13:27:23;17.00;1.00
10129;DHT22;5104;50.720;7.044;2023-03-24T13:32:54;17.00;1.00
10129;DHT22;5104;50.720;7.044;2023-03-24T13:35:49;17.00;1.00
10129;DHT22;5104;50.720;7.044;2023-03-24T13:38:24;16.90;1.00
10129;DHT22;5104;50.720;7.044;2023-03-24T13:40:53;16.80;1.00
10129;DHT22;5104;50.720;7.044;2023-03-24T13:43:23;16.60;1.00
10129;DHT22;5104;50.720;7.044;2023-03-24T13:45:58;16.50;4.40
10129;DHT22;5104;50.720;7.044;2023-03-24T13:48:30;16.30;54.30
10129;DHT22;5104;50.720;7.044;2023-03-24T13:51:00;16.20;38.60
10129;DHT22;5104;50.720;7.044;2023-03-24T13:53:37;16.20;34.10
10129;DHT22;5104;50.720;7.044;2023-03-24T13:56:08;16.20;72.80
10129;DHT22;5104;50.720;7.044;2023-03-24T13:59:04;16.30;37.10
10129;DHT22;5104;50.720;7.044;2023-03-24T14:01:34;16.50;1.00
10129;DHT22;5104;50.720;7.044;2023-03-24T14:04:24;16.70;1.00
10129;DHT22;5104;50.720;7.044;2023-03-24T14:06:53;16.80;1.00
10129;DHT22;5104;50.720;7.044;2023-03-24T14:09:22;16.90;1.00
10129;DHT22;5104;50.720;7.044;2023-03-24T14:12:18;17.00;1.00
10129;DHT22;5104;50.720;7.044;2023-03-24T14:15:11;17.20;1.00
10129;DHT22;5104;50.720;7.044;2023-03-24T14:17:41;17.40;1.00
10129;DHT22;5104;50.720;7.044;2023-03-24T14:20:32;17.70;1.00
10129;DHT22;5104;50.720;7.044;2023-03-24T14:23:00;17.80;1.00
10129;DHT22;5104;50.720;7.044;2023-03-24T14:25:29;17.50;1.00
10129;DHT22;5104;50.720;7.044;2023-03-24T14:28:10;17.40;1.00
10129;DHT22;5104;50.720;7.044;2023-03-24T14:31:00;17.30;1.00
10129;DHT22;5104;50.720;7.044;2023-03-24T14:33:28;17.10;1.00
10129;DHT22;5104;50.720;7.044;2023-03-24T14:36:02;17.10;1.00
10129;DHT22;5104;50.720;7.044;2023-03-24T14:38:34;16.80;1.00
10129;DHT22;5104;50.720;7.044;2023-03-24T14:41:07;16.70;1.00
10129;DHT22;5104;50.720;7.044;2023-03-24T14:44:01;16.90;1.00
10129;DHT22;5104;50.720;7.044;2023-03-24T14:46:40;17.00;1.00
10129;DHT22;5104;50.720;7.044;2023-03-24T14:49:21;17.20;1.00
10129;DHT22;5104;50.720;7.044;2023-03-24T14:51:58;17.40;1.00
10129;DHT22;5104;50.720;7.044;2023-03-24T14:54:31;17.20;1.00
10129;DHT22;5104;50.720;7.044;2023-03-24T14:57:00;17.00;1.00
10129;DHT22;5104;50.720;7.044;2023-03-24T14:59:45;16.70;1.00
10129;DHT22;5104;50.720;7.044;2023-03-24T15:02:26;16.50;1.00
10129;DHT22;5104;50.720;7.044;2023-03-24T15:05:16;16.10;99.90
10129;DHT22;5104;50.720;7.044;2023-03-24T15:07:56;15.30;1.00
10129;DHT22;5104;50.720;7.044;2023-03-24T15:10:25;14.90;97.20
10129;DHT22;5104;50.720;7.044;2023-03-24T15:12:53;14.50;99.90
10129;DHT22;5104;50.720;7.044;2023-03-24T15:15:21;14.50;1.00
10129;DHT22;5104;50.720;7.044;2023-03-24T15:17:49;14.70;1.00
10129;DHT22;5104;50.720;7.044;2023-03-24T15:20:21;15.00;99.90
10129;DHT22;5104;50.720;7.044;2023-03-24T15:22:50;15.30;99.90
10129;DHT22;5104;50.720;7.044;2023-03-24T15:25:24;15.70;1.00
10129;DHT22;5104;50.720;7.044;2023-03-24T15:27:52;16.10;1.00
10129;DHT22;5104;50.720;7.044;2023-03-24T15:30:20;16.50;99.90
10129;DHT22;5104;50.720;7.044;2023-03-24T15:32:47;16.70;99.90
10129;DHT22;5104;50.720;7.044;2023-03-24T15:35:17;16.70;99.90
10129;DHT22;5104;50.720;7.044;2023-03-24T15:37:51;16.80;99.90
10129;DHT22;5104;50.720;7.044;2023-03-24T15:40:35;16.70;99.90
10129;DHT22;5104;50.720;7.044;2023-03-24T15:43:04;16.90;99.90
10129;DHT22;5104;50.720;7.044;2023-03-24T15:45:34;16.90;99.90
10129;DHT22;5104;50.720;7.044;2023-03-24T15:48:06;17.10;99.90
10129;DHT22;5104;50.720;7.044;2023-03-24T15:50:36;17.00;99.90
10129;DHT22;5104;50.720;7.044;2023-03-24T15:53:19;16.80;99.90
10129;DHT22;5104;50.720;7.044;2023-03-24T15:55:47;16.70;99.90
10129;DHT22;5104;50.720;7.044;2023-03-24T15:58:28;16.30;99.90
10129;DHT22;5104;50.720;7.044;2023-03-24T16:00:58;16.20;99.90
10129;DHT22;5104;50.720;7.044;2023-03-24T16:03:28;16.30;99.90
10129;DHT22;5104;50.720;7.044;2023-03-24T16:05:58;16.40;99.90
10129;DHT22;5104;50.720;7.044;2023-03-24T16:08:30;16.20;99.90
10129;DHT22;5104;50.720;7.044;2023-03-24T16:11:02;16.00;99.90
10129;DHT22;5104;50.720;7.044;2023-03-24T16:13:32;15.90;99.90
10129;DHT22;5104;50.720;7.044;2023-03-24T16:16:04;16.00;99.90
10129;DHT22;5104;50.720;7.044;2023-03-24T16:18:33;16.60;85.70
10129;DHT22;5104;50.720;7.044;2023-03-24T16:21:02;17.00;57.90
10129;DHT22;5104;50.720;7.044;2023-03-24T16:23:31;17.00;46.00
10129;DHT22;5104;50.720;7.044;2023-03-24T16:25:58;16.80;40.00
10129;DHT22;5104;50.720;7.044;2023-03-24T16:28:25;16.40;39.10
10129;DHT22;5104;50.720;7.044;2023-03-24T16:30:57;16.10;64.70
10129;DHT22;5104;50.720;7.044;2023-03-24T16:33:25;15.80;69.00
10129;DHT22;5104;50.720;7.044;2023-03-24T16:35:53;15.60;99.90
10129;DHT22;5104;50.720;7.044;2023-03-24T16:38:21;15.40;94.50
10129;DHT22;5104;50.720;7.044;2023-03-24T16:40:50;15.40;99.10